createdAt,value
2018-06-25T00:02:24.668Z,7.47
2018-06-25T00:04:53.063Z,8.13
2018-06-25T00:07:21.370Z,7.70
2018-06-25T00:09:50.085Z,7.20
2018-06-25T00:12:18.447Z,7.07
2018-06-25T00:14:46.787Z,7.80
2018-06-25T00:17:15.083Z,6.67
2018-06-25T00:19:43.365Z,6.40
2018-06-25T00:22:11.764Z,7.67
2018-06-25T00:24:40.052Z,6.10
2018-06-25T00:27:08.368Z,6.93
2018-06-25T00:29:36.773Z,7.73
2018-06-25T00:32:05.411Z,7.37
2018-06-25T00:34:33.955Z,6.87
2018-06-25T00:37:02.271Z,8.07
2018-06-25T00:39:30.558Z,7.17
2018-06-25T00:41:58.896Z,6.33
2018-06-25T00:44:27.399Z,7.03
2018-06-25T00:46:55.673Z,6.47
2018-06-25T00:49:24.009Z,7.20
2018-06-25T00:51:52.489Z,6.70
2018-06-25T00:54:20.813Z,6.37
2018-06-25T00:56:48.880Z,6.80
2018-06-25T00:59:28.320Z,6.83
2018-06-25T01:01:57.067Z,7.00
2018-06-25T01:04:25.970Z,7.07
2018-06-25T01:06:54.271Z,7.80
2018-06-25T01:09:22.593Z,6.77
2018-06-25T01:11:50.880Z,7.20
2018-06-25T01:14:19.170Z,7.63
2018-06-25T01:16:47.452Z,6.80
2018-06-25T01:19:15.736Z,7.20
2018-06-25T01:21:44.060Z,8.93
2018-06-25T01:24:12.316Z,8.17
2018-06-25T01:26:40.623Z,7.80
2018-06-25T01:29:08.900Z,8.13
2018-06-25T01:31:37.170Z,7.80
2018-06-25T01:34:05.626Z,8.30
2018-06-25T01:36:34.086Z,7.67
2018-06-25T01:39:02.362Z,7.90
2018-06-25T01:41:30.647Z,7.90
2018-06-25T01:43:58.963Z,8.13
2018-06-25T01:46:27.279Z,7.77
2018-06-25T01:48:55.575Z,8.17
2018-06-25T01:51:23.912Z,7.13
2018-06-25T01:53:52.584Z,7.60
2018-06-25T01:56:20.860Z,7.57
2018-06-25T01:58:49.222Z,7.50
2018-06-25T02:01:17.497Z,6.80
2018-06-25T02:03:45.799Z,7.57
2018-06-25T02:06:14.071Z,7.87
2018-06-25T02:08:42.402Z,7.33
2018-06-25T02:11:11.049Z,7.57
2018-06-25T02:13:39.388Z,7.83
2018-06-25T02:16:08.033Z,7.17
2018-06-25T02:18:36.372Z,7.80
2018-06-25T02:21:05.007Z,7.87
2018-06-25T02:23:33.376Z,7.63
2018-06-25T02:26:01.765Z,7.50
2018-06-25T02:28:30.083Z,7.67
2018-06-25T02:30:58.388Z,7.60
2018-06-25T02:33:26.698Z,8.03
2018-06-25T02:35:55.038Z,7.87
2018-06-25T02:38:23.353Z,7.37
2018-06-25T02:40:51.630Z,7.50
2018-06-25T02:43:19.719Z,7.27
2018-06-25T02:48:29.792Z,8.67
2018-06-25T02:50:58.096Z,7.97
2018-06-25T02:53:26.438Z,8.17
2018-06-25T02:57:24.241Z,8.13
2018-06-25T02:59:52.595Z,7.77
2018-06-25T03:02:20.934Z,7.80
2018-06-25T03:04:49.604Z,8.07
2018-06-25T03:07:17.926Z,7.97
2018-06-25T03:09:46.264Z,8.13
2018-06-25T03:12:14.562Z,8.13
2018-06-25T03:14:43.182Z,8.30
2018-06-25T03:17:11.541Z,7.60
2018-06-25T03:19:39.850Z,7.53
2018-06-25T03:22:08.128Z,7.93
2018-06-25T03:24:36.387Z,7.67
2018-06-25T03:27:04.716Z,8.10
2018-06-25T03:29:32.989Z,7.87
2018-06-25T03:32:01.364Z,7.43
2018-06-25T03:34:30.217Z,7.00
2018-06-25T03:36:58.852Z,7.83
2018-06-25T03:39:28.128Z,8.67
2018-06-25T03:41:56.440Z,8.07
2018-06-25T03:44:24.825Z,7.67
2018-06-25T03:46:53.121Z,8.80
2018-06-25T03:49:21.439Z,8.83
2018-06-25T03:51:50.095Z,8.33
2018-06-25T03:54:18.415Z,9.10
2018-06-25T03:56:46.758Z,9.43
2018-06-25T03:59:15.091Z,9.30
2018-06-25T04:01:43.435Z,8.73
2018-06-25T04:04:12.095Z,8.87
2018-06-25T04:06:40.404Z,9.13
2018-06-25T04:09:10.015Z,8.87
2018-06-25T04:11:38.755Z,8.73
2018-06-25T04:14:07.091Z,9.23
2018-06-25T04:16:35.409Z,9.70
2018-06-25T04:19:05.067Z,9.67
2018-06-25T04:21:35.323Z,8.40
2018-06-25T04:24:03.625Z,8.93
2018-06-25T04:26:32.678Z,9.70
2018-06-25T04:29:01.140Z,10.17
2018-06-25T04:31:30.054Z,9.13
2018-06-25T04:33:59.045Z,9.57
2018-06-25T04:36:27.327Z,8.63
2018-06-25T04:38:55.607Z,8.43
2018-06-25T04:41:24.009Z,8.63
2018-06-25T04:43:52.312Z,8.23
2018-06-25T04:46:20.634Z,7.37
2018-06-25T04:48:48.931Z,7.87
2018-06-25T04:51:17.286Z,6.97
2018-06-25T04:53:45.646Z,7.00
2018-06-25T04:56:13.968Z,7.03
2018-06-25T04:58:42.321Z,6.67
2018-06-25T05:01:10.658Z,7.13
2018-06-25T05:03:39.244Z,6.30
2018-06-25T05:06:07.558Z,7.20
2018-06-25T05:08:35.884Z,7.10
2018-06-25T05:11:04.253Z,6.97
2018-06-25T05:13:32.733Z,7.20
2018-06-25T05:16:01.016Z,7.50
2018-06-25T05:18:29.318Z,7.00
2018-06-25T05:20:58.275Z,7.77
2018-06-25T05:23:26.604Z,6.93
2018-06-25T05:25:55.052Z,6.83
2018-06-25T05:28:23.384Z,8.40
2018-06-25T05:30:51.683Z,8.00
2018-06-25T05:33:20.001Z,7.97
2018-06-25T05:35:48.307Z,7.47
2018-06-25T05:38:16.670Z,7.70
2018-06-25T05:40:45.020Z,7.17
2018-06-25T05:43:13.325Z,8.07
2018-06-25T05:45:41.620Z,7.53
2018-06-25T05:48:09.955Z,6.40
2018-06-25T05:50:38.299Z,5.83
2018-06-25T05:53:06.590Z,7.00
2018-06-25T05:55:34.846Z,6.20
2018-06-25T05:58:03.180Z,5.40
2018-06-25T06:00:31.500Z,6.67
2018-06-25T06:02:59.861Z,7.50
2018-06-25T06:05:28.175Z,7.03
2018-06-25T06:07:56.477Z,9.60
2018-06-25T06:10:24.767Z,7.37
2018-06-25T06:12:54.635Z,7.93
2018-06-25T06:15:23.032Z,7.40
2018-06-25T06:17:51.980Z,6.65
2018-06-25T06:20:20.821Z,6.93
2018-06-25T06:22:49.206Z,6.53
2018-06-25T06:25:18.432Z,7.17
2018-06-25T06:27:47.273Z,8.40
2018-06-25T06:30:16.220Z,8.20
2018-06-25T06:39:28.755Z,9.65
2018-06-25T06:41:57.990Z,8.50
2018-06-25T06:44:26.884Z,7.75
2018-06-25T06:46:55.791Z,8.58
2018-06-25T06:49:25.298Z,8.23
2018-06-25T06:51:54.675Z,9.60
2018-06-25T06:54:23.292Z,8.70
2018-06-25T06:56:52.299Z,9.68
2018-06-25T06:59:21.318Z,9.95
2018-06-25T07:01:50.266Z,10.05
2018-06-25T07:04:19.237Z,9.20
2018-06-25T07:06:48.250Z,10.00
2018-06-25T07:09:17.286Z,11.10
2018-06-25T07:11:46.438Z,11.95
2018-06-25T07:14:15.506Z,14.33
2018-06-25T07:16:44.475Z,11.83
2018-06-25T07:19:13.360Z,9.78
2018-06-25T07:21:42.328Z,10.58
2018-06-25T07:24:11.298Z,10.05
2018-06-25T07:26:40.285Z,10.43
2018-06-25T07:29:09.259Z,12.30
2018-06-25T07:31:38.547Z,13.43
2018-06-25T07:34:07.455Z,11.78
2018-06-25T07:36:36.472Z,12.55
2018-06-25T07:39:08.404Z,13.35
2018-06-25T07:41:37.503Z,13.55
2018-06-25T07:44:07.009Z,12.35
2018-06-25T07:46:35.483Z,11.10
2018-06-25T07:49:04.498Z,12.15
2018-06-25T07:54:05.341Z,11.12
2018-06-25T07:56:34.323Z,10.55
2018-06-25T07:59:03.630Z,11.53
2018-06-25T08:01:32.530Z,11.93
2018-06-25T08:04:01.561Z,11.47
2018-06-25T08:06:30.489Z,11.22
2018-06-25T08:08:59.737Z,13.68
2018-06-25T08:11:28.711Z,11.08
2018-06-25T08:13:57.631Z,11.25
2018-06-25T08:16:26.551Z,12.18
2018-06-25T08:18:56.055Z,10.80
2018-06-25T08:21:24.999Z,12.13
2018-06-25T08:23:53.967Z,12.28
2018-06-25T08:26:22.979Z,11.93
2018-06-25T08:28:52.097Z,13.45
2018-06-25T08:31:21.190Z,13.15
2018-06-25T08:33:50.139Z,12.58
2018-06-25T08:36:19.214Z,12.40
2018-06-25T08:38:48.223Z,12.68
2018-06-25T08:41:17.220Z,12.60
2018-06-25T08:43:46.206Z,12.60
2018-06-25T08:46:15.142Z,12.15
2018-06-25T08:48:44.616Z,11.68
2018-06-25T08:51:17.109Z,11.90
2018-06-25T08:53:45.989Z,12.90
2018-06-25T08:56:14.916Z,13.60
2018-06-25T08:58:43.892Z,12.70
2018-06-25T09:01:12.848Z,11.43
2018-06-25T09:03:41.410Z,12.00
2018-06-25T09:06:10.373Z,10.38
2018-06-25T09:08:39.412Z,8.18
2018-06-25T09:11:09.090Z,9.20
2018-06-25T09:13:37.968Z,11.45
2018-06-25T09:16:07.452Z,13.15
2018-06-25T09:18:36.460Z,11.68
2018-06-25T09:21:05.411Z,12.58
2018-06-25T09:23:34.251Z,10.35
2018-06-25T09:26:03.153Z,8.45
2018-06-25T09:28:32.176Z,8.15
2018-06-25T09:31:01.057Z,11.78
2018-06-25T09:33:29.919Z,10.80
2018-06-25T09:35:59.454Z,8.35
2018-06-25T09:38:28.368Z,9.60
2018-06-25T09:40:57.308Z,7.47
2018-06-25T09:43:26.354Z,6.83
2018-06-25T09:45:55.237Z,6.67
2018-06-25T09:48:24.312Z,5.15
2018-06-25T09:50:53.221Z,3.85
2018-06-25T09:53:22.131Z,3.80
2018-06-25T09:55:51.031Z,2.87
2018-06-25T09:58:20.159Z,4.10
2018-06-25T10:00:54.303Z,4.85
2018-06-25T10:03:23.230Z,5.28
2018-06-25T10:05:51.864Z,4.25
2018-06-25T10:08:20.711Z,3.40
2018-06-25T10:10:49.969Z,4.10
2018-06-25T10:13:18.926Z,2.60
2018-06-25T10:15:47.786Z,3.00
2018-06-25T10:18:16.719Z,2.80
2018-06-25T10:20:45.678Z,1.82
2018-06-25T10:23:14.603Z,2.15
2018-06-25T10:25:43.451Z,3.10
2018-06-25T10:28:12.025Z,3.10
2018-06-25T10:30:40.881Z,3.52
2018-06-25T10:33:09.731Z,4.40
2018-06-25T10:35:38.943Z,3.35
2018-06-25T10:38:08.111Z,2.58
2018-06-25T10:40:37.007Z,2.00
2018-06-25T10:43:06.286Z,2.20
2018-06-25T10:45:35.162Z,1.40
2018-06-25T10:48:04.177Z,1.45
2018-06-25T10:50:33.084Z,1.07
2018-06-25T10:53:01.954Z,1.42
2018-06-25T10:55:31.047Z,1.40
2018-06-25T10:58:00.131Z,1.30
2018-06-25T11:00:29.074Z,1.20
2018-06-25T11:02:57.457Z,1.10
2018-06-25T11:05:26.419Z,0.98
2018-06-25T11:07:55.266Z,1.00
2018-06-25T11:10:24.128Z,1.30
2018-06-25T11:12:52.983Z,1.30
2018-06-25T11:15:21.901Z,1.25
2018-06-25T11:17:50.848Z,1.45
2018-06-25T11:20:19.765Z,1.10
2018-06-25T11:22:48.606Z,1.17
2018-06-25T11:25:17.477Z,1.30
2018-06-25T11:27:46.329Z,1.72
2018-06-25T11:30:15.327Z,1.62
2018-06-25T11:32:44.263Z,1.37
2018-06-25T11:35:13.172Z,1.40
2018-06-25T11:37:42.028Z,1.40
2018-06-25T11:40:10.861Z,2.60
2018-06-25T11:42:39.705Z,2.00
2018-06-25T11:45:08.556Z,2.70
2018-06-25T11:47:37.371Z,3.08
2018-06-25T11:50:06.547Z,4.45
2018-06-25T11:52:35.394Z,4.22
2018-06-25T11:55:04.271Z,2.20
2018-06-25T11:57:33.124Z,3.77
2018-06-25T12:00:01.985Z,3.65
2018-06-25T12:02:31.077Z,4.30
2018-06-25T12:05:00.082Z,5.37
2018-06-25T12:07:29.278Z,4.80
2018-06-25T12:09:58.135Z,3.05
2018-06-25T12:12:27.409Z,3.10
2018-06-25T12:14:56.484Z,4.15
2018-06-25T12:17:25.592Z,4.87
2018-06-25T12:19:54.688Z,5.22
2018-06-25T12:22:23.675Z,5.80
2018-06-25T12:24:52.338Z,6.65
2018-06-25T12:27:21.578Z,6.72
2018-06-25T12:29:50.408Z,6.28
2018-06-25T12:32:19.244Z,6.45
2018-06-25T12:34:48.123Z,5.22
2018-06-25T12:37:17.103Z,5.45
2018-06-25T12:39:45.949Z,4.25
2018-06-25T12:42:15.109Z,4.22
2018-06-25T12:44:43.965Z,4.97
2018-06-25T12:47:13.251Z,5.00
2018-06-25T12:49:42.080Z,5.55
2018-06-25T12:52:10.926Z,5.40
2018-06-25T12:54:39.805Z,4.20
2018-06-25T12:57:08.749Z,5.60
2018-06-25T12:59:37.725Z,4.85
2018-06-25T13:02:06.568Z,3.90
2018-06-25T13:04:35.107Z,4.60
2018-06-25T13:07:03.985Z,5.15
2018-06-25T13:09:32.943Z,3.62
2018-06-25T13:12:01.793Z,3.25
2018-06-25T13:14:30.628Z,3.22
2018-06-25T13:16:59.532Z,3.50
2018-06-25T13:19:28.796Z,2.98
2018-06-25T13:21:57.627Z,3.25
2018-06-25T13:24:26.488Z,3.10
2018-06-25T13:26:55.333Z,2.50
2018-06-25T13:29:24.147Z,2.98
2018-06-25T13:31:53.330Z,2.95
2018-06-25T13:34:22.230Z,2.90
2018-06-25T13:36:51.121Z,2.60
2018-06-25T13:39:19.978Z,3.20
2018-06-25T13:41:48.800Z,3.12
2018-06-25T13:44:17.999Z,3.10
2018-06-25T13:46:47.064Z,2.33
2018-06-25T13:49:15.903Z,2.58
2018-06-25T13:51:44.768Z,2.58
2018-06-25T13:54:13.829Z,2.00
2018-06-25T13:56:43.559Z,2.15
2018-06-25T13:59:12.759Z,1.80
2018-06-25T14:01:41.656Z,2.10
2018-06-25T14:04:10.553Z,2.50
2018-06-25T14:06:39.574Z,2.35
2018-06-25T14:09:09.602Z,2.40
2018-06-25T14:11:38.695Z,2.10
2018-06-25T14:14:08.077Z,2.70
2018-06-25T14:16:37.777Z,2.60
2018-06-25T14:19:06.817Z,2.67
2018-06-25T14:21:36.044Z,2.58
2018-06-25T14:24:10.447Z,2.58
2018-06-25T14:26:42.192Z,2.30
2018-06-25T14:29:16.295Z,2.30
2018-06-25T14:31:45.129Z,1.98
2018-06-25T14:34:22.095Z,2.00
2018-06-25T14:36:51.091Z,1.98
2018-06-25T14:39:20.362Z,1.77
2018-06-25T14:41:49.224Z,1.80
2018-06-25T14:44:18.153Z,1.75
2018-06-25T14:46:47.071Z,2.17
2018-06-25T14:49:15.681Z,1.80
2018-06-25T14:51:44.340Z,1.60
2018-06-25T14:54:12.960Z,2.10
2018-06-25T14:56:41.537Z,1.80
2018-06-25T14:59:10.203Z,1.80
2018-06-25T15:01:39.126Z,2.50
2018-06-25T15:04:08.611Z,1.60
2018-06-25T15:06:37.233Z,2.13
2018-06-25T15:09:08.939Z,2.30
2018-06-25T15:11:37.522Z,1.57
2018-06-25T15:14:06.544Z,1.60
2018-06-25T15:16:35.470Z,2.63
2018-06-25T15:19:04.192Z,2.67
2018-06-25T15:21:32.713Z,2.50
2018-06-25T15:24:01.255Z,1.67
2018-06-25T15:26:29.851Z,2.00
2018-06-25T15:28:58.740Z,1.70
2018-06-25T15:31:27.383Z,1.80
2018-06-25T15:33:56.008Z,1.80
2018-06-25T15:36:24.698Z,1.60
2018-06-25T15:38:53.405Z,1.40
2018-06-25T15:41:22.344Z,1.60
2018-06-25T15:43:50.928Z,1.27
2018-06-25T15:46:19.597Z,1.50
2018-06-25T15:48:48.214Z,1.20
2018-06-25T15:51:17.204Z,1.50
2018-06-25T15:53:46.324Z,1.53
2018-06-25T15:56:15.183Z,1.50
2018-06-25T15:58:44.570Z,1.70
2018-06-25T16:01:13.702Z,1.60
2018-06-25T16:03:42.353Z,1.50
2018-06-25T16:06:11.022Z,1.30
2018-06-25T16:08:39.622Z,2.80
2018-06-25T16:11:08.286Z,2.17
2018-06-25T16:13:36.916Z,2.50
2018-06-25T16:16:05.831Z,2.10
2018-06-25T16:18:34.812Z,2.50
2018-06-25T16:21:03.499Z,2.23
2018-06-25T16:23:32.160Z,2.30
2018-06-25T16:26:01.259Z,2.40
2018-06-25T16:28:29.953Z,2.23
2018-06-25T16:30:58.544Z,2.10
2018-06-25T16:33:27.181Z,2.00
2018-06-25T16:35:55.827Z,2.30
2018-06-25T16:38:24.781Z,2.00
2018-06-25T16:40:53.514Z,1.97
2018-06-25T16:43:22.298Z,2.20
2018-06-25T16:45:50.890Z,1.70
2018-06-25T16:48:19.487Z,1.70
2018-06-25T16:50:48.147Z,1.73
2018-06-25T16:53:16.909Z,1.53
2018-06-25T16:55:45.634Z,1.70
2018-06-25T16:58:14.368Z,1.97
2018-06-25T17:00:43.121Z,1.93
2018-06-25T17:03:11.469Z,1.77
2018-06-25T17:05:40.558Z,1.80
2018-06-25T17:08:09.271Z,1.67
2018-06-25T17:10:37.967Z,1.70
2018-06-25T17:13:08.282Z,1.40
2018-06-25T17:15:36.931Z,1.93
2018-06-25T17:18:05.709Z,1.90
2018-06-25T17:20:34.351Z,1.70
2018-06-25T17:23:03.094Z,2.10
2018-06-25T17:25:32.106Z,1.98
2018-06-25T17:28:01.749Z,1.90
2018-06-25T17:30:30.681Z,2.02
2018-06-25T17:32:59.641Z,2.40
2018-06-25T17:35:28.903Z,2.25
2018-06-25T17:37:58.178Z,1.80
2018-06-25T17:40:27.461Z,2.37
2018-06-25T17:42:56.425Z,1.80
2018-06-25T17:45:25.852Z,1.98
2018-06-25T17:47:54.814Z,1.85
2018-06-25T17:50:23.867Z,1.80
2018-06-25T17:52:53.559Z,2.02
2018-06-25T17:55:22.475Z,1.95
2018-06-25T17:57:51.677Z,1.95
2018-06-25T18:00:20.643Z,2.10
2018-06-25T18:02:49.630Z,2.40
2018-06-25T18:05:19.912Z,2.35
2018-06-25T18:07:48.897Z,2.50
2018-06-25T18:10:17.867Z,2.30
2018-06-25T18:12:47.108Z,3.02
2018-06-25T18:15:16.056Z,2.10
2018-06-25T18:17:45.278Z,2.70
2018-06-25T18:20:15.251Z,2.83
2018-06-25T18:22:44.149Z,2.45
2018-06-25T18:25:13.412Z,2.58
2018-06-25T18:27:42.337Z,2.58
2018-06-25T18:30:11.071Z,2.72
2018-06-25T18:52:39.077Z,2.65
2018-06-25T18:55:07.996Z,2.65
2018-06-25T18:57:36.922Z,2.40
2018-06-25T19:00:07.178Z,2.60
2018-06-25T19:02:36.437Z,2.67
2018-06-25T19:05:05.623Z,2.92
2018-06-25T19:07:34.706Z,2.95
2018-06-25T19:10:03.724Z,2.62
2018-06-25T19:12:32.683Z,3.37
2018-06-25T19:17:55.969Z,3.00
2018-06-25T19:20:25.047Z,3.58
2018-06-25T19:22:54.152Z,3.27
2018-06-25T19:25:23.114Z,3.50
2018-06-25T19:27:52.111Z,3.83
2018-06-25T19:30:21.766Z,4.12
2018-06-25T19:32:49.826Z,3.55
2018-06-25T19:35:18.774Z,3.02
2018-06-25T19:37:47.131Z,3.72
2018-06-25T19:40:15.628Z,4.10
2018-06-25T19:42:44.124Z,3.67
2018-06-25T19:45:12.736Z,3.60
2018-06-25T19:47:41.254Z,3.90
2018-06-25T19:50:09.788Z,3.43
2018-06-25T19:52:39.017Z,3.77
2018-06-25T19:55:08.130Z,3.63
2018-06-25T19:57:36.925Z,3.50
2018-06-25T20:00:09.622Z,3.80
2018-06-25T20:02:38.045Z,3.67
2018-06-25T20:05:06.829Z,4.03
2018-06-25T20:07:35.176Z,3.53
2018-06-25T20:10:03.566Z,3.67
2018-06-25T20:12:32.742Z,3.80
2018-06-25T20:15:01.811Z,3.77
2018-06-25T20:17:30.183Z,3.53
2018-06-25T20:19:58.618Z,3.53
2018-06-25T20:22:27.470Z,4.27
2018-06-25T20:24:55.971Z,3.23
2018-06-25T20:27:24.426Z,3.50
2018-06-25T20:29:52.897Z,3.63
2018-06-25T20:32:21.417Z,3.67
2018-06-25T20:34:50.123Z,4.10
2018-06-25T20:37:19.216Z,4.63
2018-06-25T20:39:47.595Z,4.13
2018-06-25T20:42:16.112Z,4.70
2018-06-25T20:44:44.535Z,5.20
2018-06-25T20:47:12.970Z,4.87
2018-06-25T20:49:42.417Z,6.03
2018-06-25T20:52:10.843Z,5.47
2018-06-25T20:54:39.204Z,6.00
2018-06-25T20:57:07.620Z,6.43
2018-06-25T20:59:36.269Z,5.73
2018-06-25T21:02:04.936Z,5.60
2018-06-25T21:04:39.434Z,5.77
2018-06-25T21:07:08.026Z,5.10
2018-06-25T21:09:36.622Z,5.23
2018-06-25T21:12:05.247Z,5.13
2018-06-25T21:14:33.676Z,5.17
2018-06-25T21:17:02.088Z,5.00
2018-06-25T21:19:34.630Z,4.90
2018-06-25T21:22:04.173Z,4.63
2018-06-25T21:24:32.648Z,4.90
2018-06-25T21:27:01.418Z,5.60
2018-06-25T21:29:29.804Z,5.03
2018-06-25T21:31:58.505Z,5.60
2018-06-25T21:34:27.218Z,4.83
2018-06-25T21:36:55.741Z,5.10
2018-06-25T21:39:24.161Z,4.93
2018-06-25T21:41:53.222Z,5.47
2018-06-25T21:44:21.602Z,4.73
2018-06-25T21:46:49.997Z,4.93
2018-06-25T21:49:18.955Z,5.10
2018-06-25T21:51:47.356Z,5.13
2018-06-25T21:54:16.114Z,5.47
2018-06-25T21:56:45.201Z,5.90
2018-06-25T21:59:13.602Z,6.23
2018-06-25T22:01:42.148Z,5.67
2018-06-25T22:04:10.745Z,5.90
2018-06-25T22:06:40.132Z,6.07
2018-06-25T22:09:09.231Z,6.53
2018-06-25T22:11:37.586Z,6.00
2018-06-25T22:14:06.099Z,6.40
2018-06-25T22:16:34.383Z,5.73
2018-06-25T22:19:02.673Z,6.00
2018-06-25T22:21:31.013Z,7.03
2018-06-25T22:23:59.361Z,6.83
2018-06-25T22:26:27.719Z,6.50
2018-06-25T22:28:55.899Z,6.60
2018-06-25T22:31:24.228Z,6.80
2018-06-25T22:33:52.547Z,5.77
2018-06-25T22:36:21.229Z,6.80
2018-06-25T22:38:49.531Z,8.30
2018-06-25T22:41:18.211Z,7.93
2018-06-25T22:43:47.004Z,8.27
2018-06-25T22:46:15.812Z,8.40
2018-06-25T22:48:44.452Z,9.23
2018-06-25T22:51:13.097Z,9.23
2018-06-25T22:53:41.487Z,9.47
2018-06-25T22:56:10.109Z,7.40
2018-06-25T22:58:38.458Z,7.47
2018-06-25T23:01:06.862Z,7.37
2018-06-25T23:03:35.216Z,6.83
2018-06-25T23:06:04.447Z,6.83
2018-06-25T23:08:32.791Z,6.67
2018-06-25T23:11:01.316Z,7.57
2018-06-25T23:13:29.719Z,7.43
2018-06-25T23:15:58.154Z,7.23
2018-06-25T23:19:55.963Z,7.30
2018-06-25T23:22:24.281Z,7.37
2018-06-25T23:24:52.860Z,7.17
2018-06-25T23:27:21.204Z,7.40
2018-06-25T23:29:49.543Z,7.40
2018-06-25T23:32:17.829Z,7.10
2018-06-25T23:34:46.398Z,7.50
2018-06-25T23:37:14.732Z,7.47
2018-06-25T23:39:43.067Z,7.23
2018-06-25T23:42:11.525Z,6.63
2018-06-25T23:44:39.860Z,7.17
2018-06-25T23:47:08.254Z,6.87
2018-06-25T23:49:36.868Z,6.53
2018-06-25T23:52:05.264Z,6.70
2018-06-25T23:54:33.787Z,6.87
2018-06-25T23:57:02.327Z,7.53
2018-06-25T23:59:30.658Z,7.27
